Terminal Aerodrome Forecast
Issued by NWS

Current Version | Previous Version | Graphics & Text | Print | Product List | Glossary On
Versions: 1 2 3 4 5 6 7 8 9 10 11 12 13 14 15 16 17 18 19 20 21 22 23 24 25
000
FTUS41 KPBZ 311000 AAA
TAFMGW
TAF AMD
KMGW 311001Z 3110/0106 20005KT 5SM -SHRA OVC035
     FM311400 22005KT 3SM SHRA OVC015
     FM312000 21005KT 5SM -SHRA VCTS OVC020CB
     FM312300 21005KT 6SM -SHRA BR OVC020=

USA.gov is the U.S. government's official web portal to all federal, state and local government web resources and services.